Larnaca, Cyprus

1:07 PM EEST on September 21, 2014 (GMT +0300)
Larnaca | Change Station
CLOSE
Current Station
Airport
Location: Larnaca,
Elevation: 7 ft
Nearby Weather Stations

Elev 7 ft 34.87 °N, 33.62 °E | Updated 7 minutes ago

Scattered Clouds
Scattered Clouds
86 °F
Feels Like 86 °F
N
18
Wind Variable Wind from SSW

Today
High -- | Low -- °F
--% Chance of Precip.
Yesterday
High -- | Low -- °F
Precip. -- in
6:32 AM 6:44 PM
Waning Crescent, 7% visible
Pressure 29.83 in
Visibility 6.2 miles
Clouds Few 3000 ft
Scattered Clouds 6000 ft
Heat Index 86 °F
Dew Point 61 °F
Humidity 43%
Rainfall 0.00 in
Snow Depth Not available.
UV 8 out of 12
Pollen Not available.
Air Quality Not available.
Flu Activity Not available.
METAR LCLK 211000Z 20016KT 9999 FEW030 SCT060 30/16 Q1010 NOSIG

More Conditions Fewer Conditions

Pressure 29.83 in
Visibility 6.2 miles
Clouds Few 3000 ft
Scattered Clouds 6000 ft
Heat Index 86 °F
Dew Point 61 °F
Humidity 43%
Rainfall 0.00 in
Snow Depth Not available.
UV 8 out of 12
Pollen Not available.
Air Quality Not available.
Flu Activity Not available.
METAR LCLK 211000Z 20016KT 9999 FEW030 SCT060 30/16 Q1010 NOSIG

More Conditions Fewer Conditions

10-Day Weather Forecast

Almanac

Astronomy

Sep. 21, 2014 Rise Set
Actual Time 6:32 AM EEST 6:44 PM EEST
Civil Twilight 6:07 AM EEST 7:09 PM EEST
Nautical Twilight 5:37 AM EEST 7:38 PM EEST
Astronomical Twilight 5:07 AM EEST 8:08 PM EEST
Moon 3:52 AM EEST 5:05 PM EEST
Length of Visible Light 13h 02m
Length of Day
12h 11m
Tomorrow will be 2m 10s shorter.
Waning Crescent, 7% of the Moon is Illuminated
Today
Waning Crescent
Sep 24
New
Oct 1
First Quarter
Oct 8
Full
Oct 15
Last Quarter

Yesterday's Extremes

Country Highs Country Lows

Community

WunderPhotos

Upload Photos

1,755,106 photos uploaded!

Nearby

Snow Depth

Not available.

Earthquake Activity

City Distance Mag. Time & Date
No recent earthquake activity has been reported nearby.
Minimum magnitude displayed is 2.5.

Coastal Water Temperatures

Place Temperature
No Stations Reporting

Nearby Weather Stations